createdAt,value
2022-12-31T14:20:06.815Z,1.87
2022-12-31T14:23:00.270Z,10.00
2022-12-31T14:25:33.024Z,2.20
2022-12-31T14:28:03.040Z,3.50
2022-12-31T14:30:34.132Z,1.83
2022-12-31T14:33:25.454Z,4.10
2022-12-31T14:36:09.992Z,6.80
2022-12-31T14:38:52.544Z,6.67
2022-12-31T14:41:39.119Z,4.43
2022-12-31T14:44:26.893Z,3.23
2022-12-31T14:47:07.453Z,3.10
2022-12-31T14:49:33.831Z,3.43
2022-12-31T14:52:21.360Z,3.93
2022-12-31T14:55:09.700Z,2.23
2022-12-31T14:58:17.225Z,2.57
2022-12-31T15:00:39.803Z,1.80
2022-12-31T15:03:34.574Z,5.60
2022-12-31T15:06:18.988Z,2.33
2022-12-31T15:08:59.945Z,2.33
2022-12-31T15:11:46.038Z,3.07
2022-12-31T15:14:24.616Z,2.53
2022-12-31T15:17:10.769Z,3.90
2022-12-31T15:19:56.368Z,3.40
2022-12-31T15:22:46.394Z,5.60
2022-12-31T15:25:38.452Z,4.83
2022-12-31T15:28:22.821Z,6.03
2022-12-31T15:30:50.568Z,4.20
2022-12-31T15:33:21.872Z,5.00
2022-12-31T15:35:51.556Z,5.63
2022-12-31T15:38:30.145Z,11.60
2022-12-31T15:40:57.106Z,6.03
2022-12-31T15:43:33.726Z,5.43
2022-12-31T15:46:01.847Z,6.70
2022-12-31T15:48:41.731Z,3.83
2022-12-31T15:51:15.565Z,3.97
2022-12-31T15:53:46.940Z,4.77
2022-12-31T15:56:22.387Z,4.93
2022-12-31T15:58:54.618Z,5.20
2022-12-31T16:01:24.214Z,3.57
2022-12-31T16:04:06.888Z,4.90
2022-12-31T16:06:37.435Z,6.27
2022-12-31T16:09:08.640Z,4.07
2022-12-31T16:11:41.778Z,3.93
2022-12-31T16:14:26.552Z,6.27
2022-12-31T16:16:58.731Z,3.97
2022-12-31T16:19:28.385Z,4.40
2022-12-31T16:21:57.065Z,4.00
2022-12-31T16:24:37.474Z,4.70
2022-12-31T16:27:16.817Z,5.03
2022-12-31T16:29:52.252Z,6.53
2022-12-31T16:32:22.081Z,4.80
2022-12-31T16:34:48.700Z,5.20
2022-12-31T16:37:20.681Z,4.70
2022-12-31T16:39:56.734Z,5.37
2022-12-31T16:42:28.615Z,3.53
2022-12-31T16:44:57.463Z,3.70
2022-12-31T16:47:36.224Z,4.40
2022-12-31T16:50:08.038Z,5.50
2022-12-31T16:52:40.960Z,3.40
2022-12-31T16:55:10.208Z,4.23
2022-12-31T16:57:37.344Z,4.27
2022-12-31T17:00:06.843Z,4.63
2022-12-31T17:02:44.014Z,4.70
2022-12-31T17:05:22.296Z,3.73
2022-12-31T17:07:49.127Z,5.77
2022-12-31T17:10:15.553Z,4.20
2022-12-31T17:13:25.593Z,4.37
2022-12-31T17:15:41.195Z,4.40
2022-12-31T17:18:08.287Z,4.70
2022-12-31T17:20:35.020Z,7.27
2022-12-31T17:23:05.667Z,4.47
2022-12-31T17:25:35.968Z,5.90
2022-12-31T17:28:05.456Z,6.40
2022-12-31T17:30:40.083Z,8.93
2022-12-31T17:33:12.440Z,6.87
2022-12-31T17:35:43.673Z,5.63
2022-12-31T17:38:22.553Z,5.33
2022-12-31T17:40:52.833Z,9.83
2022-12-31T17:43:22.212Z,6.57
2022-12-31T17:45:51.390Z,5.00
2022-12-31T17:48:20.307Z,6.80
2022-12-31T17:50:48.976Z,4.33
2022-12-31T17:53:16.175Z,6.30
2022-12-31T17:55:48.075Z,6.20
2022-12-31T17:58:18.462Z,5.47
2022-12-31T18:00:45.133Z,5.20
2022-12-31T18:03:11.850Z,7.13
2022-12-31T18:05:38.453Z,5.17
2022-12-31T18:08:05.174Z,7.60
2022-12-31T18:10:36.410Z,10.80
2022-12-31T18:13:05.687Z,6.33
2022-12-31T18:15:32.346Z,5.90
2022-12-31T18:17:58.893Z,5.60
2022-12-31T18:20:26.325Z,5.80
2022-12-31T18:22:52.970Z,5.73
2022-12-31T18:25:22.422Z,10.57
2022-12-31T18:27:52.216Z,10.17
2022-12-31T18:30:19.996Z,8.60
2022-12-31T18:32:46.856Z,5.80
2022-12-31T18:35:48.565Z,8.50
2022-12-31T18:38:03.697Z,6.13
2022-12-31T18:40:30.379Z,5.77
2022-12-31T18:43:02.695Z,5.20
2022-12-31T18:45:31.303Z,5.77
2022-12-31T18:47:57.835Z,9.40
2022-12-31T18:50:24.384Z,8.43
2022-12-31T18:52:50.865Z,11.30
2022-12-31T18:55:26.321Z,7.73
2022-12-31T18:57:53.985Z,5.43
2022-12-31T19:00:20.689Z,5.30
2022-12-31T19:02:47.183Z,8.07
2022-12-31T19:05:23.728Z,7.80
2022-12-31T19:07:50.172Z,6.63
2022-12-31T19:10:17.041Z,8.63
2022-12-31T19:12:44.400Z,9.13
2022-12-31T19:15:39.153Z,7.17
2022-12-31T19:18:15.807Z,6.30
2022-12-31T19:20:43.540Z,5.73
2022-12-31T19:23:24.009Z,7.33
2022-12-31T19:25:51.561Z,5.57
2022-12-31T19:28:24.204Z,5.73
2022-12-31T19:30:55.762Z,6.03
2022-12-31T19:33:22.524Z,8.43
2022-12-31T19:35:49.597Z,8.23
2022-12-31T19:38:24.341Z,7.90
2022-12-31T19:40:52.414Z,9.40
2022-12-31T19:43:21.373Z,7.43
2022-12-31T19:45:48.860Z,7.13
2022-12-31T19:48:19.047Z,7.93
2022-12-31T19:50:48.826Z,6.90
2022-12-31T19:53:19.647Z,6.70
2022-12-31T19:55:46.319Z,5.87
2022-12-31T19:58:19.279Z,6.37
2022-12-31T20:00:54.567Z,9.10
2022-12-31T20:03:23.888Z,5.83
2022-12-31T20:05:50.627Z,6.37
2022-12-31T20:08:20.249Z,8.47
2022-12-31T20:10:46.905Z,8.10
2022-12-31T20:13:13.310Z,7.30
2022-12-31T20:15:40.444Z,6.67
2022-12-31T20:18:06.947Z,8.20
2022-12-31T20:20:33.415Z,5.47
2022-12-31T20:22:59.942Z,6.30
2022-12-31T20:25:26.472Z,10.17
2022-12-31T20:27:54.688Z,7.70
2022-12-31T20:30:22.954Z,10.33
2022-12-31T20:32:52.104Z,9.07
2022-12-31T20:35:19.645Z,10.47
2022-12-31T20:37:49.148Z,6.47
2022-12-31T20:40:18.527Z,6.20
2022-12-31T20:42:47.116Z,5.43
2022-12-31T20:45:13.710Z,5.57
2022-12-31T20:47:40.972Z,7.47
2022-12-31T20:50:12.194Z,7.27
2022-12-31T20:52:39.239Z,7.67
2022-12-31T20:55:06.207Z,8.77
2022-12-31T20:57:35.630Z,6.50
2022-12-31T21:00:06.614Z,7.57
2022-12-31T21:02:42.284Z,6.60
2022-12-31T21:05:09.987Z,8.73
2022-12-31T21:07:36.595Z,7.73
2022-12-31T21:10:03.544Z,7.30
2022-12-31T21:12:45.571Z,6.33
2022-12-31T21:15:13.708Z,5.90
2022-12-31T21:17:42.093Z,5.37
2022-12-31T21:20:14.717Z,6.03
2022-12-31T21:22:41.207Z,7.77
2022-12-31T21:25:07.893Z,6.87
2022-12-31T21:27:35.825Z,8.70
2022-12-31T21:30:18.440Z,9.10
2022-12-31T21:32:45.698Z,7.17
2022-12-31T21:35:42.324Z,9.43
2022-12-31T21:38:07.578Z,9.93
2022-12-31T21:40:34.230Z,7.07
2022-12-31T21:43:00.782Z,8.53
2022-12-31T21:45:27.234Z,8.37
2022-12-31T21:48:12.196Z,6.57
2022-12-31T21:50:38.581Z,7.20
2022-12-31T21:53:04.982Z,8.27
2022-12-31T21:55:50.129Z,6.43
2022-12-31T21:58:26.503Z,6.13
2022-12-31T22:01:13.741Z,6.33
2022-12-31T22:03:40.886Z,6.23
2022-12-31T22:06:14.309Z,6.87
2022-12-31T22:08:45.560Z,8.27
2022-12-31T22:11:13.156Z,6.73
2022-12-31T22:13:40.095Z,8.53
2022-12-31T22:16:07.745Z,9.80
2022-12-31T22:18:38.714Z,9.13
2022-12-31T22:21:18.294Z,4.37
2022-12-31T22:23:47.039Z,7.10
2022-12-31T22:26:15.649Z,6.00
2022-12-31T22:28:43.832Z,5.60
2022-12-31T22:31:21.114Z,8.07
2022-12-31T22:33:48.175Z,7.77
2022-12-31T22:36:17.950Z,6.87
2022-12-31T22:38:48.509Z,7.80
2022-12-31T22:41:18.474Z,8.47
2022-12-31T22:43:57.197Z,6.43
2022-12-31T22:46:28.493Z,6.77
2022-12-31T22:48:58.307Z,6.13
2022-12-31T22:51:25.690Z,6.27
2022-12-31T22:53:55.974Z,8.00
2022-12-31T22:56:22.460Z,11.27
2022-12-31T22:58:49.166Z,11.37
2022-12-31T23:01:19.653Z,16.80
2022-12-31T23:03:48.252Z,34.10
2022-12-31T23:06:15.375Z,43.63
2022-12-31T23:09:02.115Z,45.60
2022-12-31T23:11:29.192Z,46.05
2022-12-31T23:14:13.978Z,48.70
2022-12-31T23:16:59.264Z,50.33
2022-12-31T23:20:04.252Z,50.80
2022-12-31T23:22:49.100Z,50.13
2022-12-31T23:25:15.695Z,49.93
2022-12-31T23:27:42.207Z,44.50
2022-12-31T23:30:09.142Z,43.43
2022-12-31T23:32:35.613Z,48.87
2022-12-31T23:35:07.807Z,41.80
2022-12-31T23:37:36.309Z,33.70
2022-12-31T23:40:02.734Z,37.13
2022-12-31T23:42:29.161Z,28.50
2022-12-31T23:44:55.559Z,33.37
2022-12-31T23:47:22.030Z,31.17
2022-12-31T23:49:48.518Z,31.07
2022-12-31T23:52:14.973Z,28.60
2022-12-31T23:54:41.482Z,25.90
2022-12-31T23:57:08.104Z,27.70
2022-12-31T23:59:34.549Z,29.97
